Terminal Aerodrome Forecast
Issued by NWS

Home | Current Version | Previous Version | Text Only | Print | Product List | Glossary On
Versions: 1 2 3 4 5 6 7 8 9 10 11 12 13 14
000
FTUS43 KDTX 250529
TAFPTK
TAF
KPTK 250529Z 2506/2606 21005KT P6SM SCT020
      TEMPO 2506/2510 4SM BR BKN007
     FM251000 23003KT 2SM BR SCT020
     FM251400 25010KT P6SM BKN040 OVC100
      TEMPO 2514/2518 4SM -SHRA BR OVC030
     FM251800 25013G20KT P6SM BKN040 PROB30 2518/2522 2SM TSRA
      OVC025CB
     FM260000 28010KT P6SM SCT250=

USA.gov is the U.S. government's official web portal to all federal, state and local government web resources and services.